Time;durP1;ratioP1;P1;durP2;ratioP2;P2;SDS_P1;SDS_P2;PMS_P1;PMS_P2;Temp;Humidity;BMP_temperature;BMP_pressure;BME280_temperature;BME280_humidity;BME280_pressure;Samples;Min_cycle;Max_cycle;Signal;HPM_P1;HPM_P2
2022/02/22 00:00:46;;;;;;;5.00;4.28;;;;;;;3.52;70.91;97635.09;5071306;28;20059;-62
2022/02/22 00:03:12;;;;;;;5.72;4.35;;;;;;;3.58;71.04;97645.13;5071569;28;20032;-61
2022/02/22 00:05:38;;;;;;;5.45;4.55;;;;;;;3.60;71.10;97652.94;5071717;28;20122;-63
2022/02/22 00:08:06;;;;;;;5.28;4.30;;;;;;;3.41;71.35;97632.56;5071312;28;20111;-62
2022/02/22 00:10:31;;;;;;;5.82;4.03;;;;;;;3.43;71.52;97627.97;5033232;28;20070;-60
2022/02/22 00:12:57;;;;;;;5.35;4.00;;;;;;;3.62;71.08;97647.50;5062613;28;20021;-63
2022/02/22 00:15:23;;;;;;;4.90;3.88;;;;;;;3.63;71.33;97651.84;5071817;28;20398;-62
2022/02/22 00:17:48;;;;;;;4.30;3.85;;;;;;;3.67;70.61;97662.03;5070612;28;20377;-60
2022/02/22 00:20:16;;;;;;;4.28;3.88;;;;;;;3.67;70.72;97658.56;5053238;28;20147;-61
2022/02/22 00:22:42;;;;;;;3.92;3.53;;;;;;;3.67;70.67;97654.09;5071558;28;20032;-60
2022/02/22 00:25:11;;;;;;;4.78;3.80;;;;;;;3.62;70.76;97645.72;5070782;28;20068;-60
2022/02/22 00:27:45;;;;;;;4.78;3.90;;;;;;;3.57;70.55;97642.63;5071171;28;20043;-62
2022/02/22 00:30:12;;;;;;;5.25;3.47;;;;;;;3.69;70.16;97646.03;5055945;28;20458;-61
2022/02/22 00:32:39;;;;;;;4.28;3.33;;;;;;;3.66;70.28;97641.00;5071185;28;20028;-61
2022/02/22 00:35:14;;;;;;;4.35;3.50;;;;;;;3.69;70.48;97638.09;5070401;28;20119;-61
2022/02/22 00:37:41;;;;;;;3.30;3.00;;;;;;;3.68;70.14;97639.06;5063195;28;20029;-61
2022/02/22 00:40:09;;;;;;;4.13;3.20;;;;;;;3.67;70.73;97634.75;5071232;28;20474;-60
2022/02/22 00:42:35;;;;;;;4.32;3.40;;;;;;;3.42;70.88;97594.53;5070565;28;20035;-60
2022/02/22 00:45:01;;;;;;;3.90;3.50;;;;;;;3.45;70.24;97589.81;5070643;28;20055;-61
2022/02/22 00:47:29;;;;;;;3.30;3.00;;;;;;;3.61;70.31;97625.50;5053261;28;20028;-61
2022/02/22 00:49:55;;;;;;;3.60;3.20;;;;;;;3.63;71.07;97630.69;5070856;28;20029;-61
2022/02/22 00:52:20;;;;;;;3.42;3.13;;;;;;;3.59;70.69;97612.41;5070627;28;20024;-62
2022/02/22 00:54:46;;;;;;;3.92;3.00;;;;;;;3.68;70.48;97645.16;5052193;28;20078;-59
2022/02/22 00:57:12;;;;;;;4.05;3.10;;;;;;;3.66;70.61;97620.66;5070905;28;20036;-61
2022/02/22 00:59:38;;;;;;;3.60;3.30;;;;;;;3.68;70.61;97617.88;5070721;28;20028;-60
2022/02/22 01:02:04;;;;;;;4.78;2.90;;;;;;;3.75;70.11;97618.19;5070416;28;20044;-60
2022/02/22 01:04:29;;;;;;;3.75;2.70;;;;;;;3.70;69.92;97634.47;5070660;28;20025;-61
2022/02/22 01:06:56;;;;;;;3.92;3.20;;;;;;;3.72;70.42;97624.56;5070134;28;20111;-61
2022/02/22 01:09:22;;;;;;;3.38;2.58;;;;;;;3.64;70.15;97603.25;5070708;28;20028;-62
2022/02/22 01:11:48;;;;;;;3.40;3.10;;;;;;;3.69;70.00;97604.50;5070335;28;20477;-61
2022/02/22 01:14:13;;;;;;;3.88;3.05;;;;;;;3.69;69.97;97603.69;5070058;28;20024;-62
2022/02/22 01:16:39;;;;;;;3.08;2.78;;;;;;;3.62;70.46;97597.22;5070201;28;20107;-63
2022/02/22 01:19:04;;;;;;;2.63;2.42;;;;;;;3.68;70.33;97608.13;5070171;28;20071;-60
2022/02/22 01:21:33;;;;;;;2.75;2.55;;;;;;;3.70;70.44;97595.59;5070724;28;20040;-62
2022/02/22 01:24:00;;;;;;;2.60;2.40;;;;;;;3.64;70.25;97597.97;5069830;28;20478;-60
2022/02/22 01:26:27;;;;;;;2.90;2.60;;;;;;;3.68;69.99;97604.66;5070206;28;20038;-61
2022/02/22 01:28:53;;;;;;;3.17;2.47;;;;;;;3.56;70.43;97591.50;5048676;28;20163;-62
2022/02/22 01:31:19;;;;;;;2.63;2.30;;;;;;;3.64;70.63;97608.53;5051915;28;20112;-61
2022/02/22 01:33:44;;;;;;;2.83;2.38;;;;;;;3.63;70.67;97620.09;5069991;28;20050;-60
2022/02/22 01:36:10;;;;;;;2.15;1.95;;;;;;;3.63;70.34;97625.41;5070112;28;20017;-62
2022/02/22 01:38:36;;;;;;;2.75;2.55;;;;;;;3.40;70.79;97580.63;5069735;28;20036;-61
2022/02/22 01:41:01;;;;;;;2.22;2.03;;;;;;;3.64;70.32;97616.50;5070192;28;20043;-61
2022/02/22 01:43:27;;;;;;;2.65;2.28;;;;;;;3.61;70.85;97609.63;5069890;28;20032;-61
2022/02/22 01:45:52;;;;;;;3.63;2.67;;;;;;;3.56;70.42;97599.44;5069833;28;20375;-61
2022/02/22 01:48:18;;;;;;;2.40;2.08;;;;;;;3.63;70.88;97610.34;5069954;28;20430;-59
2022/02/22 01:50:43;;;;;;;2.45;2.15;;;;;;;3.65;70.71;97602.28;5069675;28;20051;-61
2022/02/22 01:53:09;;;;;;;2.75;2.40;;;;;;;3.59;70.55;97588.59;5069815;28;20386;-62
2022/02/22 01:55:36;;;;;;;2.30;2.08;;;;;;;3.70;70.64;97608.00;5073153;28;20110;-62
2022/02/22 01:58:03;;;;;;;2.55;2.35;;;;;;;3.64;70.38;97590.84;5073712;28;20070;-60
2022/02/22 02:00:28;;;;;;;2.65;2.42;;;;;;;3.71;70.46;97602.56;5036229;28;20500;-61
2022/02/22 02:02:55;;;;;;;2.15;1.95;;;;;;;3.72;70.46;97603.41;5042729;28;20136;-61
2022/02/22 02:05:20;;;;;;;2.88;2.00;;;;;;;3.72;70.59;97596.28;5055339;28;20028;-60
2022/02/22 02:07:46;;;;;;;2.38;2.10;;;;;;;3.70;70.23;97585.00;5073711;28;20052;-61
2022/02/22 02:10:11;;;;;;;3.05;2.40;;;;;;;3.66;70.95;97573.00;5074116;28;20107;-60
2022/02/22 02:12:39;;;;;;;2.20;2.00;;;;;;;3.71;70.43;97591.97;5073583;28;20137;-60
2022/02/22 02:15:06;;;;;;;2.30;2.10;;;;;;;3.76;70.28;97594.22;5052433;28;20028;-61
2022/02/22 02:17:34;;;;;;;2.47;2.28;;;;;;;3.74;69.96;97569.69;5069697;28;20035;-60
2022/02/22 02:20:08;;;;;;;2.10;1.90;;;;;;;3.76;70.31;97578.34;5072994;28;20402;-61
2022/02/22 02:22:33;;;;;;;2.20;2.00;;;;;;;3.58;69.86;97543.75;5052625;28;20140;-61
2022/02/22 02:24:59;;;;;;;2.40;2.10;;;;;;;3.76;70.48;97567.75;5064844;28;20115;-60
2022/02/22 02:27:25;;;;;;;2.58;2.22;;;;;;;3.77;70.84;97579.19;5052536;28;20483;-60
2022/02/22 02:29:50;;;;;;;2.17;1.98;;;;;;;3.73;70.17;97571.50;5071309;28;20035;-61
2022/02/22 02:32:16;;;;;;;2.30;2.10;;;;;;;3.72;70.15;97566.34;5073573;28;20071;-60
2022/02/22 02:34:41;;;;;;;2.40;2.20;;;;;;;3.79;70.15;97577.25;5073785;28;20035;-61
2022/02/22 02:37:07;;;;;;;2.55;1.92;;;;;;;3.81;70.46;97575.28;5070339;28;20044;-60
2022/02/22 02:39:33;;;;;;;2.28;2.08;;;;;;;3.82;70.27;97582.25;5068860;28;20032;-61
2022/02/22 02:41:58;;;;;;;1.88;1.73;;;;;;;3.84;70.26;97575.84;5073304;28;20113;-60
2022/02/22 02:44:24;;;;;;;1.98;1.85;;;;;;;3.81;70.29;97570.81;5073447;28;20465;-60
2022/02/22 02:46:51;;;;;;;1.90;1.77;;;;;;;3.82;70.14;97569.84;5073150;28;20047;-59
2022/02/22 02:49:18;;;;;;;1.95;1.65;;;;;;;3.79;70.23;97570.13;5073069;28;20611;-61
2022/02/22 02:51:44;;;;;;;2.10;1.67;;;;;;;3.80;70.69;97571.78;5072846;28;20077;-58
2022/02/22 02:54:12;;;;;;;1.90;1.70;;;;;;;3.79;70.37;97582.53;5073015;28;20028;-61
2022/02/22 02:56:38;;;;;;;1.90;1.80;;;;;;;3.68;70.33;97565.78;5073171;28;20493;-60
2022/02/22 02:59:07;;;;;;;2.00;1.80;;;;;;;3.78;71.08;97575.56;5072533;28;20047;-61
2022/02/22 03:01:34;;;;;;;2.10;1.90;;;;;;;3.76;70.66;97574.88;5072545;28;20055;-61
2022/02/22 03:04:01;;;;;;;2.30;2.00;;;;;;;3.75;70.33;97574.00;5073057;28;20032;-60
2022/02/22 03:06:27;;;;;;;2.05;1.85;;;;;;;3.67;70.22;97550.06;5053741;28;20374;-59
2022/02/22 03:08:53;;;;;;;2.20;2.00;;;;;;;3.71;70.43;97562.84;5072175;28;20047;-61
2022/02/22 03:11:19;;;;;;;1.95;1.75;;;;;;;3.70;70.95;97568.31;5072342;28;20032;-61
2022/02/22 03:13:45;;;;;;;1.70;1.60;;;;;;;3.66;70.82;97545.72;5072824;28;20535;-63
2022/02/22 03:16:10;;;;;;;1.80;1.70;;;;;;;3.79;70.47;97567.47;5072977;28;20082;-60
2022/02/22 03:18:37;;;;;;;2.47;2.10;;;;;;;3.78;70.46;97571.09;5072469;28;20032;-60
2022/02/22 03:21:03;;;;;;;1.88;1.77;;;;;;;3.58;70.61;97539.28;5072074;28;20044;-59
2022/02/22 03:23:28;;;;;;;2.17;1.98;;;;;;;3.75;70.46;97566.06;5054948;28;20041;-61
2022/02/22 03:25:54;;;;;;;2.45;2.20;;;;;;;3.77;70.77;97564.13;5072131;28;20040;-60
2022/02/22 03:28:20;;;;;;;2.30;2.10;;;;;;;3.80;71.05;97571.78;5071793;28;20382;-59
2022/02/22 03:30:46;;;;;;;3.60;2.50;;;;;;;3.82;71.34;97564.53;5071850;28;20032;-58
2022/02/22 03:33:12;;;;;;;3.33;2.50;;;;;;;3.82;70.77;97561.91;5072091;28;20042;-60
2022/02/22 03:35:39;;;;;;;3.63;2.45;;;;;;;3.85;70.93;97558.97;5054368;28;20033;-59
2022/02/22 03:38:05;;;;;;;4.20;2.70;;;;;;;3.80;71.06;97552.44;5062716;28;20024;-60
2022/02/22 03:40:31;;;;;;;4.32;3.20;;;;;;;3.77;71.06;97548.25;5053929;28;20035;-59
2022/02/22 03:42:57;;;;;;;4.32;3.25;;;;;;;3.84;71.37;97545.91;5071659;28;20024;-61
2022/02/22 03:45:23;;;;;;;4.18;3.08;;;;;;;3.82;71.36;97540.72;5071929;28;20025;-61
2022/02/22 03:47:49;;;;;;;4.10;3.28;;;;;;;3.81;71.12;97535.59;5051603;28;20067;-60
2022/02/22 03:50:15;;;;;;;3.92;3.20;;;;;;;3.81;71.44;97533.75;5050870;28;20020;-60
2022/02/22 03:52:42;;;;;;;4.95;3.33;;;;;;;3.86;71.64;97546.59;5060373;28;20024;-64
2022/02/22 03:55:08;;;;;;;5.30;3.58;;;;;;;3.63;71.55;97514.25;5071916;28;20143;-62
2022/02/22 03:57:35;;;;;;;5.10;3.50;;;;;;;3.88;71.87;97558.72;5054051;28;20056;-60
2022/02/22 04:00:03;;;;;;;5.20;3.75;;;;;;;3.84;71.95;97543.25;5071396;28;20060;-60
2022/02/22 04:02:30;;;;;;;5.97;3.70;;;;;;;3.92;71.76;97563.75;5071454;28;20494;-60
2022/02/22 04:04:56;;;;;;;7.40;4.10;;;;;;;3.86;71.80;97546.59;5053661;28;20102;-61
2022/02/22 04:07:22;;;;;;;5.53;3.88;;;;;;;3.90;72.48;97552.47;5071495;28;20036;-61
2022/02/22 04:09:47;;;;;;;6.25;4.20;;;;;;;3.92;72.42;97546.03;5053272;28;20037;-61
2022/02/22 04:12:13;;;;;;;6.00;4.55;;;;;;;3.94;72.45;97557.31;5071832;28;20036;-60
2022/02/22 04:14:39;;;;;;;5.65;4.07;;;;;;;3.97;72.45;97558.88;5050524;28;20103;-62
2022/02/22 04:17:05;;;;;;;5.28;4.20;;;;;;;3.94;72.50;97556.50;5062143;28;20362;-61
2022/02/22 04:19:30;;;;;;;7.00;4.55;;;;;;;3.99;72.03;97554.25;5071119;28;20056;-61
2022/02/22 04:21:56;;;;;;;8.00;5.00;;;;;;;3.98;72.11;97552.59;5071446;28;20109;-62
2022/02/22 04:24:21;;;;;;;6.60;4.47;;;;;;;3.90;71.84;97542.69;5071104;28;20469;-61
2022/02/22 04:26:47;;;;;;;5.22;4.30;;;;;;;3.98;72.09;97569.34;5049492;28;20041;-61
2022/02/22 04:29:13;;;;;;;5.38;3.90;;;;;;;3.94;72.27;97556.50;5053339;28;20021;-61
2022/02/22 04:31:39;;;;;;;6.55;3.80;;;;;;;4.00;72.72;97558.59;5071293;28;20036;-62
2022/02/22 04:34:06;;;;;;;5.70;4.07;;;;;;;4.00;72.17;97558.59;5070548;28;20024;-62
2022/02/22 04:36:33;;;;;;;5.97;4.50;;;;;;;3.93;72.49;97553.00;5052920;28;20040;-63
2022/02/22 04:38:59;;;;;;;8.15;4.15;;;;;;;3.97;72.75;97557.03;5063128;28;20067;-61
2022/02/22 04:41:24;;;;;;;7.93;4.05;;;;;;;3.99;72.71;97554.25;5071333;28;20470;-62
2022/02/22 04:43:50;;;;;;;6.43;3.70;;;;;;;4.07;72.19;97564.16;5052404;28;20024;-62
2022/02/22 04:46:15;;;;;;;4.90;3.42;;;;;;;4.06;72.25;97563.31;5070715;28;20028;-62
2022/02/22 04:48:41;;;;;;;5.28;3.67;;;;;;;4.05;71.82;97566.94;5071217;28;20025;-62
2022/02/22 04:51:06;;;;;;;3.47;2.92;;;;;;;4.04;72.17;97570.56;5071102;28;20119;-63
2022/02/22 04:53:32;;;;;;;3.72;3.10;;;;;;;4.09;71.81;97580.75;5070673;28;20470;-63
2022/02/22 04:55:57;;;;;;;3.65;2.90;;;;;;;3.99;71.79;97568.34;5045985;28;20413;-61
2022/02/22 04:58:23;;;;;;;4.20;3.20;;;;;;;4.00;72.07;97569.19;5059749;28;20043;-62
2022/02/22 05:00:50;;;;;;;5.15;3.20;;;;;;;3.77;71.89;97540.31;5060133;28;20367;-63
2022/02/22 05:03:16;;;;;;;4.40;2.60;;;;;;;3.95;72.05;97574.06;5061666;28;20433;-64
2022/02/22 05:05:41;;;;;;;4.25;2.63;;;;;;;3.94;71.71;97589.09;5060212;28;20033;-64
2022/02/22 05:08:07;;;;;;;4.78;2.90;;;;;;;3.94;71.80;97583.78;5037889;28;20029;-66
2022/02/22 05:10:33;;;;;;;3.58;2.80;;;;;;;3.94;72.15;97594.38;5059656;28;20060;-63
2022/02/22 05:12:58;;;;;;;4.32;2.80;;;;;;;3.93;72.43;97586.59;5062852;28;20460;-65
2022/02/22 05:15:24;;;;;;;4.60;2.90;;;;;;;3.96;72.09;97584.50;5060633;28;20037;-64
2022/02/22 05:17:50;;;;;;;3.10;2.70;;;;;;;3.76;71.87;97548.41;5058277;28;20056;-62
2022/02/22 05:20:16;;;;;;;3.33;2.58;;;;;;;3.80;71.80;97553.25;5070083;28;20513;-60
2022/02/22 05:22:44;;;;;;;3.80;2.80;;;;;;;3.99;71.83;97591.34;5061519;28;20033;-62
2022/02/22 05:25:12;;;;;;;3.03;2.72;;;;;;;3.84;72.18;97567.06;5069649;28;20032;-62
2022/02/22 05:27:38;;;;;;;4.63;2.83;;;;;;;3.92;72.36;97593.69;5064645;28;20064;-62
2022/02/22 05:30:05;;;;;;;2.92;2.58;;;;;;;4.01;71.94;97599.97;5046378;28;20156;-63
2022/02/22 05:32:31;;;;;;;2.58;2.20;;;;;;;4.00;72.23;97604.44;5054110;28;20032;-61
2022/02/22 05:34:58;;;;;;;4.68;2.55;;;;;;;4.05;72.11;97597.91;5059935;28;20036;-61
2022/02/22 05:37:24;;;;;;;3.20;2.25;;;;;;;4.08;71.98;97610.84;5070207;28;20401;-63
2022/02/22 05:39:50;;;;;;;3.03;2.47;;;;;;;4.08;72.08;97614.31;5069812;28;20094;-62
2022/02/22 05:42:15;;;;;;;4.32;2.45;;;;;;;4.15;72.17;97622.56;5062484;28;20555;-61
2022/02/22 05:44:41;;;;;;;3.17;2.30;;;;;;;4.21;71.61;97623.84;5060748;28;20024;-62
2022/02/22 05:47:06;;;;;;;3.13;2.10;;;;;;;4.24;71.43;97618.25;5056693;28;20040;-62
2022/02/22 05:49:32;;;;;;;3.63;2.25;;;;;;;4.23;71.76;97621.88;5058005;28;20033;-61
2022/02/22 05:51:57;;;;;;;4.90;2.40;;;;;;;4.25;71.94;97626.09;5040744;28;20423;-62
2022/02/22 05:54:23;;;;;;;3.22;2.13;;;;;;;4.27;71.72;97639.16;5058541;28;20113;-60
2022/02/22 05:56:49;;;;;;;2.97;2.15;;;;;;;4.30;71.45;97638.88;5069253;28;20028;-61
2022/02/22 05:59:14;;;;;;;3.15;2.30;;;;;;;4.30;71.56;97641.53;5064857;28;21024;-59
2022/02/22 06:01:43;;;;;;;4.13;2.03;;;;;;;4.10;71.07;97601.81;5066308;28;20438;-61
2022/02/22 06:04:11;;;;;;;2.58;2.10;;;;;;;4.37;71.57;97639.19;5069171;28;20104;-61
2022/02/22 06:06:40;;;;;;;3.78;2.10;;;;;;;4.36;71.27;97654.25;5063415;28;20032;-62
2022/02/22 06:09:06;;;;;;;3.42;1.90;;;;;;;4.36;71.54;97648.97;5067195;28;20813;-62
2022/02/22 06:11:32;;;;;;;2.10;1.80;;;;;;;4.37;71.67;97652.44;5068257;28;20397;-60
2022/02/22 06:13:58;;;;;;;3.80;2.05;;;;;;;4.31;71.30;97657.31;5049645;28;20385;-60
2022/02/22 06:16:24;;;;;;;2.25;1.80;;;;;;;4.28;71.41;97657.59;5068437;28;20039;-61
2022/02/22 06:18:49;;;;;;;2.10;1.90;;;;;;;4.30;71.59;97686.56;5065445;28;20036;-62
2022/02/22 06:21:15;;;;;;;3.83;2.60;;;;;;;4.22;71.11;97673.19;5033070;28;20032;-61
2022/02/22 06:23:41;;;;;;;2.75;2.10;;;;;;;4.18;71.03;97666.50;5068627;28;20492;-61
2022/02/22 06:26:07;;;;;;;2.47;1.88;;;;;;;4.14;70.77;97668.56;5067408;28;20465;-60
2022/02/22 06:28:32;;;;;;;2.45;2.00;;;;;;;4.19;70.59;97690.19;5068105;28;20032;-61
2022/02/22 06:30:59;;;;;;;3.25;1.90;;;;;;;4.18;71.55;97688.50;5067585;28;20029;-61
2022/02/22 06:33:25;;;;;;;2.80;2.17;;;;;;;4.16;71.15;97699.25;5068232;28;20063;-62
2022/02/22 06:35:51;;;;;;;2.92;1.80;;;;;;;4.16;71.11;97695.75;5068139;28;20378;-63
2022/02/22 06:38:17;;;;;;;4.63;2.50;;;;;;;4.15;71.41;97705.53;5065794;28;20471;-62
2022/02/22 06:40:42;;;;;;;7.82;2.30;;;;;;;4.19;71.43;97718.50;5050938;28;20026;-63
2022/02/22 06:43:08;;;;;;;2.97;2.20;;;;;;;4.21;71.00;97706.75;5072289;28;20109;-62
2022/02/22 06:45:33;;;;;;;2.03;1.55;;;;;;;4.20;71.14;97704.28;5051807;28;20823;-61
2022/02/22 06:47:59;;;;;;;3.80;2.10;;;;;;;4.28;70.75;97717.66;5072154;28;20028;-62
2022/02/22 06:50:25;;;;;;;5.72;2.17;;;;;;;4.27;70.50;97711.53;5072713;28;20029;-63
2022/02/22 06:52:51;;;;;;;4.40;2.20;;;;;;;4.38;70.83;97738.88;5070929;28;20462;-64
2022/02/22 06:55:16;;;;;;;4.45;2.25;;;;;;;4.40;70.28;97729.84;5072594;28;20036;-64
2022/02/22 06:57:42;;;;;;;5.03;2.78;;;;;;;4.43;69.94;97732.22;5063823;28;20036;-65
2022/02/22 07:00:12;;;;;;;4.07;2.13;;;;;;;4.56;69.98;97723.16;5051147;28;20143;-62
2022/02/22 07:02:40;;;;;;;2.63;1.60;;;;;;;4.46;69.97;97693.97;5060561;28;20043;-64
2022/02/22 07:05:07;;;;;;;2.47;1.50;;;;;;;4.63;70.04;97713.69;5065994;28;20040;-65
2022/02/22 07:07:33;;;;;;;2.00;1.42;;;;;;;4.67;69.54;97728.34;5049609;28;20028;-62
2022/02/22 07:09:58;;;;;;;3.70;1.50;;;;;;;4.74;69.18;97725.97;5051577;28;20700;-62
2022/02/22 07:12:24;;;;;;;2.63;1.55;;;;;;;4.74;69.65;97723.31;5068302;28;20043;-63
2022/02/22 07:14:49;;;;;;;2.40;1.55;;;;;;;4.87;68.83;97738.97;5073141;28;20036;-62
2022/02/22 07:17:15;;;;;;;3.75;1.13;;;;;;;4.93;68.78;97740.19;5072719;28;20028;-63
2022/02/22 07:19:40;;;;;;;2.97;1.48;;;;;;;5.09;68.50;97739.66;5072625;28;20048;-62
2022/02/22 07:22:06;;;;;;;2.22;1.10;;;;;;;5.16;67.63;97743.41;5072327;28;20397;-62
2022/02/22 07:24:32;;;;;;;3.67;0.90;;;;;;;5.20;67.55;97736.00;5072600;28;20036;-62
2022/02/22 07:26:57;;;;;;;2.03;1.20;;;;;;;5.24;67.13;97748.00;5072587;28;20040;-63
2022/02/22 07:29:30;;;;;;;3.58;1.40;;;;;;;5.19;66.90;97739.66;5072453;28;20047;-64
2022/02/22 07:31:55;;;;;;;1.92;1.00;;;;;;;5.37;67.56;97753.84;5072696;28;20490;-63
2022/02/22 07:34:21;;;;;;;1.88;1.00;;;;;;;5.59;66.13;97744.75;5073026;28;20020;-65
2022/02/22 07:36:46;;;;;;;4.32;1.40;;;;;;;6.07;66.19;97744.75;5073119;28;20039;-66
2022/02/22 07:39:12;;;;;;;2.58;1.55;;;;;;;8.48;59.52;97747.44;5073563;28;20028;-66
2022/02/22 07:41:37;;;;;;;2.13;1.23;;;;;;;11.61;52.50;97741.38;5072937;28;20029;-63
2022/02/22 07:44:04;;;;;;;1.70;1.10;;;;;;;14.73;42.82;97730.75;5072280;28;20109;-64
2022/02/22 07:46:30;;;;;;;1.58;1.00;;;;;;;16.20;39.12;97729.13;5055087;28;20107;-64
2022/02/22 07:48:55;;;;;;;3.22;0.90;;;;;;;17.78;35.55;97728.66;5054722;28;20119;-65
2022/02/22 07:51:21;;;;;;;3.65;1.20;;;;;;;19.28;31.94;97729.38;5072261;28;20420;-64
2022/02/22 07:53:48;;;;;;;2.00;0.90;;;;;;;19.95;31.40;97735.66;5071847;28;20032;-62
2022/02/22 07:56:14;;;;;;;1.90;0.90;;;;;;;20.06;30.79;97742.16;5072902;28;20021;-63
2022/02/22 07:58:40;;;;;;;1.98;1.00;;;;;;;19.02;31.29;97750.41;5072189;28;20060;-64
2022/02/22 08:01:06;;;;;;;3.10;1.05;;;;;;;17.24;33.50;97744.47;5072383;28;20034;-63
2022/02/22 08:03:33;;;;;;;3.65;1.60;;;;;;;15.50;36.37;97763.63;5072679;28;20055;-63
2022/02/22 08:05:59;;;;;;;3.35;1.77;;;;;;;14.01;39.28;97766.00;5072033;28;20024;-64
2022/02/22 08:08:24;;;;;;;2.17;1.40;;;;;;;12.74;41.68;97759.22;5072082;28;20119;-63
2022/02/22 08:10:50;;;;;;;2.38;1.10;;;;;;;11.37;44.53;97763.03;5072395;28;20037;-62
2022/02/22 08:13:17;;;;;;;3.05;1.50;;;;;;;10.28;47.30;97783.34;5072908;28;20036;-65
2022/02/22 08:15:42;;;;;;;2.28;1.00;;;;;;;9.48;49.11;97772.50;5072007;28;20529;-63
2022/02/22 08:18:08;;;;;;;3.65;1.30;;;;;;;8.78;50.63;97765.75;5071655;28;20199;-63
2022/02/22 08:20:34;;;;;;;2.42;1.13;;;;;;;8.28;52.48;97781.56;5054535;28;20099;-63
2022/02/22 08:23:00;;;;;;;2.67;1.33;;;;;;;7.99;53.39;97785.41;5072078;28;20037;-63
2022/02/22 08:25:26;;;;;;;4.18;1.10;;;;;;;7.77;54.19;97798.25;5071775;28;20037;-63
2022/02/22 08:27:52;;;;;;;4.68;1.30;;;;;;;7.58;54.39;97812.59;5071860;28;20078;-63
2022/02/22 08:30:18;;;;;;;1.85;1.20;;;;;;;7.39;55.01;97808.28;5072583;28;20056;-63
2022/02/22 08:32:43;;;;;;;3.67;1.80;;;;;;;7.30;55.19;97791.41;5072027;28;20384;-63
2022/02/22 08:35:09;;;;;;;5.72;1.52;;;;;;;7.47;54.93;97782.56;5071339;28;20392;-64
2022/02/22 08:37:34;;;;;;;2.15;1.30;;;;;;;7.65;54.28;97796.81;5071553;28;20036;-63
2022/02/22 08:40:01;;;;;;;4.55;1.60;;;;;;;7.55;54.26;97797.78;5072058;28;20566;-64
2022/02/22 08:42:26;;;;;;;3.40;1.73;;;;;;;7.50;54.59;97796.56;5071931;28;20024;-63
2022/02/22 08:44:53;;;;;;;5.10;2.00;;;;;;;7.49;54.56;97792.22;5070960;28;20343;-63
2022/02/22 08:47:18;;;;;;;3.03;1.73;;;;;;;7.42;54.54;97781.34;5071413;28;20111;-65
2022/02/22 08:49:46;;;;;;;3.72;1.85;;;;;;;7.37;54.90;97768.50;5053868;28;20504;-64
2022/02/22 08:52:11;;;;;;;5.95;2.15;;;;;;;7.76;54.25;97783.28;5071726;28;20028;-67
2022/02/22 08:54:37;;;;;;;3.83;1.80;;;;;;;8.15;53.09;97793.47;5070977;28;20484;-68
2022/02/22 08:57:02;;;;;;;5.03;1.67;;;;;;;8.44;53.01;97794.97;5071129;28;20025;-69
2022/02/22 08:59:28;;;;;;;4.90;1.77;;;;;;;8.76;52.34;97801.44;5071654;28;20036;-70
2022/02/22 09:01:53;;;;;;;3.53;1.60;;;;;;;9.08;51.39;97816.84;5071526;28;20040;-69
2022/02/22 09:04:19;;;;;;;3.95;1.67;;;;;;;9.09;50.72;97821.19;5070131;28;20025;-68
2022/02/22 09:06:44;;;;;;;4.47;1.95;;;;;;;8.71;51.11;97781.56;5052864;28;20111;-68
2022/02/22 09:09:10;;;;;;;5.18;1.90;;;;;;;8.67;52.47;97818.38;5071471;28;20356;-70
2022/02/22 09:11:35;;;;;;;2.28;1.58;;;;;;;8.46;52.36;97826.78;5053269;28;20021;-67
2022/02/22 09:14:01;;;;;;;1.88;1.30;;;;;;;8.05;52.78;97828.22;5070819;28;20032;-69
2022/02/22 09:16:26;;;;;;;3.28;1.35;;;;;;;7.94;54.00;97847.16;5070728;28;20082;-71
2022/02/22 09:18:53;;;;;;;2.97;1.60;;;;;;;7.96;53.90;97831.84;5070705;28;20554;-67
2022/02/22 09:21:20;;;;;;;3.08;1.45;;;;;;;8.13;53.19;97846.09;5070695;28;20037;-69
2022/02/22 09:23:45;;;;;;;3.45;1.65;;;;;;;8.24;52.89;97828.19;5070787;28;20048;-70
2022/02/22 09:26:11;;;;;;;2.63;1.30;;;;;;;8.60;51.68;97823.56;5070694;28;20036;-67
2022/02/22 09:28:36;;;;;;;5.28;1.67;;;;;;;8.94;51.18;97832.50;5071226;28;20385;-70
2022/02/22 09:31:02;;;;;;;3.40;1.50;;;;;;;9.11;50.30;97830.72;5070896;28;20033;-68
2022/02/22 09:33:27;;;;;;;3.85;1.63;;;;;;;9.15;50.33;97816.03;5070962;28;20478;-68
2022/02/22 09:35:53;;;;;;;3.05;1.50;;;;;;;9.11;50.28;97827.19;5071220;28;20021;-65
2022/02/22 09:38:18;;;;;;;2.88;1.40;;;;;;;9.05;50.46;97818.03;5070931;28;20139;-67
2022/02/22 09:40:44;;;;;;;5.00;1.63;;;;;;;9.02;50.25;97788.97;5065613;28;20024;-66
2022/02/22 09:43:10;;;;;;;4.60;1.48;;;;;;;9.31;50.04;97833.91;5070761;28;20086;-67
2022/02/22 09:45:36;;;;;;;2.30;1.73;;;;;;;9.29;49.93;97827.06;5066589;28;20021;-68
2022/02/22 09:48:04;;;;;;;4.82;1.90;;;;;;;9.36;49.72;97840.56;5052320;28;20420;-67
2022/02/22 09:50:32;;;;;;;4.10;1.98;;;;;;;9.38;49.63;97842.09;5062278;28;20035;-66
2022/02/22 09:52:57;;;;;;;3.88;1.60;;;;;;;9.38;48.86;97841.25;5068720;28;20017;-65
2022/02/22 09:55:23;;;;;;;4.70;1.98;;;;;;;9.04;48.63;97797.63;5067457;28;20541;-68
2022/02/22 09:57:50;;;;;;;2.25;1.50;;;;;;;9.13;49.26;97841.22;5061648;28;20025;-66
2022/02/22 10:00:20;;;;;;;3.85;1.65;;;;;;;9.05;49.02;97834.84;5067502;28;20032;-67
2022/02/22 10:02:47;;;;;;;4.32;1.55;;;;;;;9.11;48.82;97844.06;5064795;28;20025;-71
2022/02/22 10:05:13;;;;;;;2.90;1.60;;;;;;;9.13;48.32;97849.22;5068396;28;20090;-69
2022/02/22 10:07:55;;;;;;;2.58;1.23;;;;;;;9.12;48.68;97842.22;5067214;28;20037;-68
2022/02/22 10:10:34;;;;;;;3.58;1.30;;;;;;;9.12;48.98;97837.72;5069134;28;20028;-67
2022/02/22 10:13:00;;;;;;;2.92;1.27;;;;;;;9.08;47.55;97841.72;5068667;28;20037;-72
2022/02/22 10:15:25;;;;;;;2.83;1.20;;;;;;;9.00;47.51;97834.53;5071251;28;20086;-71
2022/02/22 10:17:51;;;;;;;2.00;1.05;;;;;;;9.04;47.65;97845.69;5074684;28;20079;-70
2022/02/22 10:20:17;;;;;;;2.53;1.17;;;;;;;9.04;47.80;97841.19;5069387;28;20060;-68
2022/02/22 10:22:53;;;;;;;1.25;1.10;;;;;;;9.10;47.96;97838.88;5073656;28;20477;-70
2022/02/22 10:25:19;;;;;;;3.47;1.13;;;;;;;8.57;48.08;97810.56;5072470;28;20075;-69
2022/02/22 10:27:53;;;;;;;4.22;1.70;;;;;;;8.62;49.00;97844.72;5074253;28;20438;-66
2022/02/22 10:30:40;;;;;;;2.65;1.40;;;;;;;8.52;49.19;97836.03;5073861;28;20041;-76
2022/02/22 10:33:23;;;;;;;2.75;1.20;;;;;;;8.40;49.86;97838.91;5074294;28;20024;-70
2022/02/22 10:35:51;;;;;;;2.25;1.20;;;;;;;8.28;49.42;97824.22;5074574;28;20028;-73
2022/02/22 10:38:26;;;;;;;1.90;1.38;;;;;;;8.27;50.22;97830.53;5074111;28;20086;-75
2022/02/22 10:41:14;;;;;;;2.90;1.40;;;;;;;8.22;50.58;97822.19;5074137;28;20048;-76
2022/02/22 10:43:41;;;;;;;5.95;1.55;;;;;;;8.21;50.12;97826.66;5056395;28;20044;-76
2022/02/22 10:46:11;;;;;;;3.03;1.80;;;;;;;8.26;50.57;97831.53;5074293;28;20419;-74
2022/02/22 10:48:39;;;;;;;3.30;1.90;;;;;;;8.14;50.15;97839.78;5074303;28;20044;-74
2022/02/22 10:51:14;;;;;;;2.50;1.90;;;;;;;8.03;50.62;97845.38;5056255;28;20032;-75
2022/02/22 10:53:43;;;;;;;3.50;1.80;;;;;;;7.96;50.85;97831.03;5074736;28;20033;-75
2022/02/22 10:56:11;;;;;;;2.30;1.45;;;;;;;7.87;50.06;97854.94;5074547;28;20051;-74
2022/02/22 10:58:40;;;;;;;3.03;1.05;;;;;;;7.81;49.88;97834.25;5073944;28;20474;-75
2022/02/22 11:01:10;;;;;;;2.22;1.15;;;;;;;7.86;49.72;97842.59;5073735;28;20024;-74
2022/02/22 11:03:37;;;;;;;2.80;1.38;;;;;;;7.83;49.58;97826.94;5073911;28;20032;-74
2022/02/22 11:06:03;;;;;;;3.70;1.50;;;;;;;7.92;49.06;97833.16;5072357;28;20039;-65
2022/02/22 11:08:34;;;;;;;6.53;1.27;;;;;;;7.94;48.59;97844.50;5064495;28;20420;-74
2022/02/22 11:11:12;;;;;;;3.22;1.50;;;;;;;8.13;48.05;97838.13;5071323;28;20466;-76
2022/02/22 11:13:39;;;;;;;3.38;1.40;;;;;;;8.00;48.25;97827.88;5073282;28;20036;-75
2022/02/22 11:16:11;;;;;;;2.60;1.67;;;;;;;7.92;49.03;97840.31;5072878;28;20436;-73
2022/02/22 11:18:49;;;;;;;3.90;1.40;;;;;;;7.56;49.13;97801.25;5070684;28;20393;-70
2022/02/22 11:21:17;;;;;;;4.05;1.08;;;;;;;7.54;48.98;97827.19;5068367;28;20036;-73
2022/02/22 11:23:43;;;;;;;3.05;1.55;;;;;;;7.46;49.54;97826.16;5071628;28;20059;-75
2022/02/22 11:26:11;;;;;;;5.15;1.83;;;;;;;7.64;49.35;97821.78;5072141;28;20156;-73
2022/02/22 11:28:39;;;;;;;5.25;1.40;;;;;;;7.63;49.68;97828.97;5071681;28;20035;-75
2022/02/22 11:31:07;;;;;;;3.65;1.80;;;;;;;7.46;50.39;97820.81;5074806;28;20416;-76
2022/02/22 11:33:41;;;;;;;4.35;1.55;;;;;;;7.43;50.67;97817.63;5071715;28;20386;-74
2022/02/22 11:36:08;;;;;;;3.67;1.85;;;;;;;7.36;50.53;97829.88;5072876;28;20115;-72
2022/02/22 11:38:45;;;;;;;5.47;1.70;;;;;;;7.45;51.03;97834.28;5072801;28;20107;-67